sensor_id;sensor_type;location;lat;lon;timestamp;P1;durP1;ratioP1;P2;durP2;ratioP2
18738;SDS011;9498;51.862;19.460;2023-05-23T00:02:02;8.00;;;4.30;;
18738;SDS011;9498;51.862;19.460;2023-05-23T00:04:33;6.87;;;4.40;;
18738;SDS011;9498;51.862;19.460;2023-05-23T00:07:01;8.00;;;4.63;;
18738;SDS011;9498;51.862;19.460;2023-05-23T00:09:28;6.57;;;4.10;;
18738;SDS011;9498;51.862;19.460;2023-05-23T00:11:55;8.40;;;4.60;;
18738;SDS011;9498;51.862;19.460;2023-05-23T00:14:22;7.23;;;4.30;;
18738;SDS011;9498;51.862;19.460;2023-05-23T00:16:49;7.03;;;4.60;;
18738;SDS011;9498;51.862;19.460;2023-05-23T00:19:17;10.07;;;4.70;;
18738;SDS011;9498;51.862;19.460;2023-05-23T00:21:46;7.77;;;4.17;;
18738;SDS011;9498;51.862;19.460;2023-05-23T00:24:13;9.30;;;4.60;;
18738;SDS011;9498;51.862;19.460;2023-05-23T00:26:42;9.87;;;4.90;;
18738;SDS011;9498;51.862;19.460;2023-05-23T00:29:09;8.80;;;4.60;;
18738;SDS011;9498;51.862;19.460;2023-05-23T00:31:40;6.27;;;4.47;;
18738;SDS011;9498;51.862;19.460;2023-05-23T00:34:10;6.67;;;4.30;;
18738;SDS011;9498;51.862;19.460;2023-05-23T00:36:37;6.47;;;4.33;;
18738;SDS011;9498;51.862;19.460;2023-05-23T00:39:07;7.43;;;4.07;;
18738;SDS011;9498;51.862;19.460;2023-05-23T00:41:41;7.20;;;4.00;;
18738;SDS011;9498;51.862;19.460;2023-05-23T00:44:08;6.90;;;4.20;;
18738;SDS011;9498;51.862;19.460;2023-05-23T00:46:35;7.17;;;4.07;;
18738;SDS011;9498;51.862;19.460;2023-05-23T00:49:02;6.60;;;4.00;;
18738;SDS011;9498;51.862;19.460;2023-05-23T00:51:30;8.40;;;4.43;;
18738;SDS011;9498;51.862;19.460;2023-05-23T00:53:57;8.57;;;4.23;;
18738;SDS011;9498;51.862;19.460;2023-05-23T00:56:26;7.47;;;5.13;;
18738;SDS011;9498;51.862;19.460;2023-05-23T00:58:54;8.63;;;4.00;;
18738;SDS011;9498;51.862;19.460;2023-05-23T01:01:22;9.63;;;4.03;;
18738;SDS011;9498;51.862;19.460;2023-05-23T01:03:49;12.67;;;3.83;;
18738;SDS011;9498;51.862;19.460;2023-05-23T01:06:17;6.50;;;4.00;;
18738;SDS011;9498;51.862;19.460;2023-05-23T01:08:44;7.23;;;4.00;;
18738;SDS011;9498;51.862;19.460;2023-05-23T01:11:13;7.47;;;3.70;;
18738;SDS011;9498;51.862;19.460;2023-05-23T01:13:50;8.50;;;3.97;;
18738;SDS011;9498;51.862;19.460;2023-05-23T01:16:24;7.00;;;4.13;;
18738;SDS011;9498;51.862;19.460;2023-05-23T01:18:55;8.83;;;4.03;;
18738;SDS011;9498;51.862;19.460;2023-05-23T01:21:24;11.30;;;3.67;;
18738;SDS011;9498;51.862;19.460;2023-05-23T01:24:10;8.73;;;3.87;;
18738;SDS011;9498;51.862;19.460;2023-05-23T01:26:45;9.30;;;3.87;;
18738;SDS011;9498;51.862;19.460;2023-05-23T01:29:19;7.33;;;4.13;;
18738;SDS011;9498;51.862;19.460;2023-05-23T01:31:48;10.37;;;3.70;;
18738;SDS011;9498;51.862;19.460;2023-05-23T01:34:18;11.33;;;4.10;;
18738;SDS011;9498;51.862;19.460;2023-05-23T01:36:48;6.57;;;3.70;;
18738;SDS011;9498;51.862;19.460;2023-05-23T01:39:15;7.50;;;3.53;;
18738;SDS011;9498;51.862;19.460;2023-05-23T01:41:42;7.17;;;4.20;;
18738;SDS011;9498;51.862;19.460;2023-05-23T01:44:09;7.60;;;4.87;;
18738;SDS011;9498;51.862;19.460;2023-05-23T01:46:38;7.00;;;4.37;;
18738;SDS011;9498;51.862;19.460;2023-05-23T01:49:08;9.17;;;4.17;;
18738;SDS011;9498;51.862;19.460;2023-05-23T01:51:37;6.70;;;4.40;;
18738;SDS011;9498;51.862;19.460;2023-05-23T01:54:04;6.47;;;4.07;;
18738;SDS011;9498;51.862;19.460;2023-05-23T01:56:32;15.70;;;7.60;;
18738;SDS011;9498;51.862;19.460;2023-05-23T01:59:00;14.20;;;7.30;;
18738;SDS011;9498;51.862;19.460;2023-05-23T02:01:27;12.47;;;5.60;;
18738;SDS011;9498;51.862;19.460;2023-05-23T02:03:56;8.57;;;5.03;;
18738;SDS011;9498;51.862;19.460;2023-05-23T02:06:23;6.63;;;4.10;;
18738;SDS011;9498;51.862;19.460;2023-05-23T02:08:50;7.83;;;4.40;;
18738;SDS011;9498;51.862;19.460;2023-05-23T02:11:18;5.03;;;3.63;;
18738;SDS011;9498;51.862;19.460;2023-05-23T02:13:46;8.43;;;4.17;;
18738;SDS011;9498;51.862;19.460;2023-05-23T02:16:13;5.87;;;3.77;;
18738;SDS011;9498;51.862;19.460;2023-05-23T02:18:40;7.67;;;3.60;;
18738;SDS011;9498;51.862;19.460;2023-05-23T02:21:11;5.40;;;3.60;;
18738;SDS011;9498;51.862;19.460;2023-05-23T02:23:39;7.50;;;3.33;;
18738;SDS011;9498;51.862;19.460;2023-05-23T02:26:06;5.63;;;3.60;;
18738;SDS011;9498;51.862;19.460;2023-05-23T02:28:33;4.77;;;3.50;;
18738;SDS011;9498;51.862;19.460;2023-05-23T02:31:00;5.40;;;3.43;;
18738;SDS011;9498;51.862;19.460;2023-05-23T02:33:28;7.97;;;3.87;;
18738;SDS011;9498;51.862;19.460;2023-05-23T02:35:55;7.00;;;3.70;;
18738;SDS011;9498;51.862;19.460;2023-05-23T02:38:23;6.47;;;3.53;;
18738;SDS011;9498;51.862;19.460;2023-05-23T02:40:51;5.80;;;3.63;;
18738;SDS011;9498;51.862;19.460;2023-05-23T02:43:20;6.07;;;3.87;;
18738;SDS011;9498;51.862;19.460;2023-05-23T02:45:48;7.43;;;3.70;;
18738;SDS011;9498;51.862;19.460;2023-05-23T02:48:15;5.37;;;3.57;;
18738;SDS011;9498;51.862;19.460;2023-05-23T02:50:42;6.80;;;3.77;;
18738;SDS011;9498;51.862;19.460;2023-05-23T02:53:09;7.30;;;3.77;;
18738;SDS011;9498;51.862;19.460;2023-05-23T02:55:38;10.50;;;3.63;;
18738;SDS011;9498;51.862;19.460;2023-05-23T02:58:06;10.20;;;3.93;;
18738;SDS011;9498;51.862;19.460;2023-05-23T03:00:34;5.77;;;3.83;;
18738;SDS011;9498;51.862;19.460;2023-05-23T03:03:02;10.90;;;3.80;;
18738;SDS011;9498;51.862;19.460;2023-05-23T03:05:29;8.83;;;3.80;;
18738;SDS011;9498;51.862;19.460;2023-05-23T03:07:56;9.10;;;3.80;;
18738;SDS011;9498;51.862;19.460;2023-05-23T03:10:24;9.40;;;3.87;;
18738;SDS011;9498;51.862;19.460;2023-05-23T03:12:54;6.13;;;3.50;;
18738;SDS011;9498;51.862;19.460;2023-05-23T03:15:21;7.30;;;3.93;;
18738;SDS011;9498;51.862;19.460;2023-05-23T03:17:48;6.70;;;3.27;;
18738;SDS011;9498;51.862;19.460;2023-05-23T03:20:15;8.83;;;3.57;;
18738;SDS011;9498;51.862;19.460;2023-05-23T03:22:42;6.20;;;3.70;;
18738;SDS011;9498;51.862;19.460;2023-05-23T03:25:10;5.20;;;3.20;;
18738;SDS011;9498;51.862;19.460;2023-05-23T03:27:37;7.57;;;3.50;;
18738;SDS011;9498;51.862;19.460;2023-05-23T03:30:06;11.60;;;4.23;;
18738;SDS011;9498;51.862;19.460;2023-05-23T03:32:34;6.07;;;3.37;;
18738;SDS011;9498;51.862;19.460;2023-05-23T03:35:01;7.40;;;4.10;;
18738;SDS011;9498;51.862;19.460;2023-05-23T03:37:28;7.23;;;4.23;;
18738;SDS011;9498;51.862;19.460;2023-05-23T03:39:55;9.97;;;3.83;;
18738;SDS011;9498;51.862;19.460;2023-05-23T03:42:23;6.57;;;3.90;;
18738;SDS011;9498;51.862;19.460;2023-05-23T03:44:50;7.60;;;3.93;;
18738;SDS011;9498;51.862;19.460;2023-05-23T03:47:19;6.20;;;3.70;;
18738;SDS011;9498;51.862;19.460;2023-05-23T03:49:48;7.07;;;3.93;;
18738;SDS011;9498;51.862;19.460;2023-05-23T03:52:15;6.67;;;3.63;;
18738;SDS011;9498;51.862;19.460;2023-05-23T03:54:42;8.67;;;4.03;;
18738;SDS011;9498;51.862;19.460;2023-05-23T03:57:10;6.93;;;3.63;;
18738;SDS011;9498;51.862;19.460;2023-05-23T03:59:37;5.53;;;3.57;;
18738;SDS011;9498;51.862;19.460;2023-05-23T04:02:04;9.80;;;3.80;;
18738;SDS011;9498;51.862;19.460;2023-05-23T04:04:33;7.67;;;3.53;;
18738;SDS011;9498;51.862;19.460;2023-05-23T04:07:00;8.20;;;4.17;;
18738;SDS011;9498;51.862;19.460;2023-05-23T04:09:29;10.17;;;3.40;;
18738;SDS011;9498;51.862;19.460;2023-05-23T04:11:56;6.80;;;3.57;;
18738;SDS011;9498;51.862;19.460;2023-05-23T04:14:24;9.37;;;3.57;;
18738;SDS011;9498;51.862;19.460;2023-05-23T04:16:51;6.80;;;3.70;;
18738;SDS011;9498;51.862;19.460;2023-05-23T04:19:19;10.60;;;3.83;;
18738;SDS011;9498;51.862;19.460;2023-05-23T04:21:48;7.63;;;3.93;;
18738;SDS011;9498;51.862;19.460;2023-05-23T04:24:15;8.43;;;4.10;;
18738;SDS011;9498;51.862;19.460;2023-05-23T04:26:43;8.43;;;3.40;;
18738;SDS011;9498;51.862;19.460;2023-05-23T04:29:10;6.67;;;3.83;;
18738;SDS011;9498;51.862;19.460;2023-05-23T04:31:37;5.50;;;3.60;;
18738;SDS011;9498;51.862;19.460;2023-05-23T04:34:05;9.20;;;3.57;;
18738;SDS011;9498;51.862;19.460;2023-05-23T04:36:33;5.37;;;3.23;;
18738;SDS011;9498;51.862;19.460;2023-05-23T04:39:03;7.77;;;3.90;;
18738;SDS011;9498;51.862;19.460;2023-05-23T04:41:30;5.23;;;2.73;;
18738;SDS011;9498;51.862;19.460;2023-05-23T04:43:58;9.10;;;3.60;;
18738;SDS011;9498;51.862;19.460;2023-05-23T04:46:25;8.27;;;3.47;;
18738;SDS011;9498;51.862;19.460;2023-05-23T04:48:53;5.07;;;3.23;;
18738;SDS011;9498;51.862;19.460;2023-05-23T04:51:20;7.17;;;3.40;;
18738;SDS011;9498;51.862;19.460;2023-05-23T04:53:48;7.43;;;3.33;;
18738;SDS011;9498;51.862;19.460;2023-05-23T04:56:16;8.33;;;3.30;;
18738;SDS011;9498;51.862;19.460;2023-05-23T04:58:44;5.60;;;3.30;;
18738;SDS011;9498;51.862;19.460;2023-05-23T05:01:12;6.50;;;3.50;;
18738;SDS011;9498;51.862;19.460;2023-05-23T05:03:39;5.93;;;3.20;;
18738;SDS011;9498;51.862;19.460;2023-05-23T05:06:07;6.23;;;3.40;;
18738;SDS011;9498;51.862;19.460;2023-05-23T05:08:34;6.17;;;3.50;;
18738;SDS011;9498;51.862;19.460;2023-05-23T05:11:02;6.43;;;3.33;;
18738;SDS011;9498;51.862;19.460;2023-05-23T05:13:30;7.30;;;3.30;;
18738;SDS011;9498;51.862;19.460;2023-05-23T05:15:58;4.70;;;3.20;;
18738;SDS011;9498;51.862;19.460;2023-05-23T05:18:25;4.37;;;3.00;;
18738;SDS011;9498;51.862;19.460;2023-05-23T05:20:53;7.43;;;3.30;;
18738;SDS011;9498;51.862;19.460;2023-05-23T05:23:23;6.57;;;2.80;;
18738;SDS011;9498;51.862;19.460;2023-05-23T05:25:52;5.93;;;3.13;;
18738;SDS011;9498;51.862;19.460;2023-05-23T05:28:21;6.63;;;3.07;;
18738;SDS011;9498;51.862;19.460;2023-05-23T05:30:50;6.47;;;3.07;;
18738;SDS011;9498;51.862;19.460;2023-05-23T05:33:18;9.63;;;3.13;;
18738;SDS011;9498;51.862;19.460;2023-05-23T05:35:47;6.13;;;3.00;;
18738;SDS011;9498;51.862;19.460;2023-05-23T05:38:15;8.40;;;3.33;;
18738;SDS011;9498;51.862;19.460;2023-05-23T05:40:42;5.87;;;3.13;;
18738;SDS011;9498;51.862;19.460;2023-05-23T05:43:09;8.90;;;3.10;;
18738;SDS011;9498;51.862;19.460;2023-05-23T05:45:36;10.40;;;3.33;;
18738;SDS011;9498;51.862;19.460;2023-05-23T05:48:05;7.40;;;3.00;;
18738;SDS011;9498;51.862;19.460;2023-05-23T05:50:32;4.53;;;2.80;;
18738;SDS011;9498;51.862;19.460;2023-05-23T05:53:00;7.13;;;3.00;;
18738;SDS011;9498;51.862;19.460;2023-05-23T05:55:27;6.13;;;3.23;;
18738;SDS011;9498;51.862;19.460;2023-05-23T05:57:54;6.23;;;2.70;;
18738;SDS011;9498;51.862;19.460;2023-05-23T06:00:21;5.50;;;3.40;;
18738;SDS011;9498;51.862;19.460;2023-05-23T06:02:49;5.07;;;3.37;;
18738;SDS011;9498;51.862;19.460;2023-05-23T06:05:19;5.33;;;2.90;;
18738;SDS011;9498;51.862;19.460;2023-05-23T06:07:47;5.63;;;2.97;;
18738;SDS011;9498;51.862;19.460;2023-05-23T06:10:15;9.73;;;2.83;;
18738;SDS011;9498;51.862;19.460;2023-05-23T06:12:43;6.10;;;3.03;;
18738;SDS011;9498;51.862;19.460;2023-05-23T06:15:10;9.10;;;2.87;;
18738;SDS011;9498;51.862;19.460;2023-05-23T06:17:38;12.30;;;3.00;;
18738;SDS011;9498;51.862;19.460;2023-05-23T06:20:06;9.37;;;3.23;;
18738;SDS011;9498;51.862;19.460;2023-05-23T06:22:35;3.87;;;2.83;;
18738;SDS011;9498;51.862;19.460;2023-05-23T06:25:02;4.97;;;3.03;;
18738;SDS011;9498;51.862;19.460;2023-05-23T06:27:29;4.87;;;2.50;;
18738;SDS011;9498;51.862;19.460;2023-05-23T06:29:57;5.07;;;3.10;;
18738;SDS011;9498;51.862;19.460;2023-05-23T06:32:24;5.97;;;3.07;;
18738;SDS011;9498;51.862;19.460;2023-05-23T06:34:51;5.37;;;2.93;;
18738;SDS011;9498;51.862;19.460;2023-05-23T06:37:18;5.60;;;3.07;;
18738;SDS011;9498;51.862;19.460;2023-05-23T06:39:47;6.20;;;2.93;;
18738;SDS011;9498;51.862;19.460;2023-05-23T06:42:14;11.43;;;3.43;;
18738;SDS011;9498;51.862;19.460;2023-05-23T06:44:41;6.17;;;2.73;;
18738;SDS011;9498;51.862;19.460;2023-05-23T06:47:08;6.63;;;2.90;;
18738;SDS011;9498;51.862;19.460;2023-05-23T06:49:35;7.80;;;3.00;;
18738;SDS011;9498;51.862;19.460;2023-05-23T06:52:03;6.90;;;2.90;;
18738;SDS011;9498;51.862;19.460;2023-05-23T06:54:30;6.73;;;3.20;;
18738;SDS011;9498;51.862;19.460;2023-05-23T06:56:59;7.70;;;2.97;;
18738;SDS011;9498;51.862;19.460;2023-05-23T06:59:26;5.07;;;2.70;;
18738;SDS011;9498;51.862;19.460;2023-05-23T07:01:53;5.88;;;2.90;;
18738;SDS011;9498;51.862;19.460;2023-05-23T07:04:20;6.80;;;2.80;;
18738;SDS011;9498;51.862;19.460;2023-05-23T07:06:48;5.27;;;2.47;;
18738;SDS011;9498;51.862;19.460;2023-05-23T07:09:16;3.77;;;2.53;;
18738;SDS011;9498;51.862;19.460;2023-05-23T07:11:43;6.87;;;2.87;;
18738;SDS011;9498;51.862;19.460;2023-05-23T07:14:14;6.47;;;2.70;;
18738;SDS011;9498;51.862;19.460;2023-05-23T07:16:41;6.27;;;3.07;;
18738;SDS011;9498;51.862;19.460;2023-05-23T07:19:08;4.50;;;2.47;;
18738;SDS011;9498;51.862;19.460;2023-05-23T07:21:35;7.47;;;2.90;;
18738;SDS011;9498;51.862;19.460;2023-05-23T07:24:03;4.97;;;2.67;;
18738;SDS011;9498;51.862;19.460;2023-05-23T07:26:30;6.03;;;3.03;;
18738;SDS011;9498;51.862;19.460;2023-05-23T07:28:57;6.83;;;2.80;;
18738;SDS011;9498;51.862;19.460;2023-05-23T07:31:26;5.17;;;2.97;;
18738;SDS011;9498;51.862;19.460;2023-05-23T07:33:53;6.37;;;2.80;;
18738;SDS011;9498;51.862;19.460;2023-05-23T07:36:20;4.33;;;2.87;;
18738;SDS011;9498;51.862;19.460;2023-05-23T07:38:48;7.20;;;3.10;;
18738;SDS011;9498;51.862;19.460;2023-05-23T07:41:15;4.57;;;3.03;;
18738;SDS011;9498;51.862;19.460;2023-05-23T07:43:42;5.10;;;2.70;;
18738;SDS011;9498;51.862;19.460;2023-05-23T07:46:09;8.03;;;3.23;;
18738;SDS011;9498;51.862;19.460;2023-05-23T07:48:38;5.40;;;2.50;;
18738;SDS011;9498;51.862;19.460;2023-05-23T07:51:05;4.70;;;2.87;;
18738;SDS011;9498;51.862;19.460;2023-05-23T07:53:32;4.43;;;3.07;;
18738;SDS011;9498;51.862;19.460;2023-05-23T07:56:03;7.00;;;2.97;;
18738;SDS011;9498;51.862;19.460;2023-05-23T07:58:31;7.33;;;2.70;;
18738;SDS011;9498;51.862;19.460;2023-05-23T08:00:58;8.60;;;3.00;;
18738;SDS011;9498;51.862;19.460;2023-05-23T08:03:25;3.73;;;2.73;;
18738;SDS011;9498;51.862;19.460;2023-05-23T08:05:54;7.53;;;3.30;;
18738;SDS011;9498;51.862;19.460;2023-05-23T08:08:21;6.00;;;3.00;;
18738;SDS011;9498;51.862;19.460;2023-05-23T08:10:48;5.07;;;3.10;;
18738;SDS011;9498;51.862;19.460;2023-05-23T08:13:15;3.30;;;2.70;;
18738;SDS011;9498;51.862;19.460;2023-05-23T08:15:43;10.83;;;3.20;;
18738;SDS011;9498;51.862;19.460;2023-05-23T08:18:10;6.50;;;2.60;;
18738;SDS011;9498;51.862;19.460;2023-05-23T08:20:37;5.80;;;2.90;;
18738;SDS011;9498;51.862;19.460;2023-05-23T08:23:06;12.83;;;3.20;;
18738;SDS011;9498;51.862;19.460;2023-05-23T08:25:33;4.53;;;2.87;;
18738;SDS011;9498;51.862;19.460;2023-05-23T08:28:00;10.43;;;3.20;;
18738;SDS011;9498;51.862;19.460;2023-05-23T08:30:28;4.07;;;2.63;;
18738;SDS011;9498;51.862;19.460;2023-05-23T08:32:57;6.70;;;3.10;;
18738;SDS011;9498;51.862;19.460;2023-05-23T08:35:24;5.97;;;3.00;;
18738;SDS011;9498;51.862;19.460;2023-05-23T08:37:53;10.33;;;3.30;;
18738;SDS011;9498;51.862;19.460;2023-05-23T08:40:23;5.20;;;2.83;;
18738;SDS011;9498;51.862;19.460;2023-05-23T08:42:54;4.93;;;2.80;;
18738;SDS011;9498;51.862;19.460;2023-05-23T08:45:21;5.40;;;2.93;;
18738;SDS011;9498;51.862;19.460;2023-05-23T08:47:49;5.57;;;2.60;;
18738;SDS011;9498;51.862;19.460;2023-05-23T08:50:17;3.73;;;2.70;;
18738;SDS011;9498;51.862;19.460;2023-05-23T08:52:47;5.73;;;2.70;;
18738;SDS011;9498;51.862;19.460;2023-05-23T08:55:16;5.27;;;2.67;;
18738;SDS011;9498;51.862;19.460;2023-05-23T08:57:45;5.90;;;3.20;;
18738;SDS011;9498;51.862;19.460;2023-05-23T09:00:12;7.70;;;2.90;;
18738;SDS011;9498;51.862;19.460;2023-05-23T09:02:41;4.77;;;2.80;;
18738;SDS011;9498;51.862;19.460;2023-05-23T09:05:09;5.80;;;2.77;;
18738;SDS011;9498;51.862;19.460;2023-05-23T09:07:36;5.50;;;2.80;;
18738;SDS011;9498;51.862;19.460;2023-05-23T09:10:04;7.53;;;3.03;;
18738;SDS011;9498;51.862;19.460;2023-05-23T09:12:32;6.00;;;3.17;;
18738;SDS011;9498;51.862;19.460;2023-05-23T09:15:02;5.30;;;3.10;;
18738;SDS011;9498;51.862;19.460;2023-05-23T09:17:30;9.63;;;2.97;;
18738;SDS011;9498;51.862;19.460;2023-05-23T09:19:57;6.00;;;2.90;;
18738;SDS011;9498;51.862;19.460;2023-05-23T09:22:25;10.05;;;3.05;;
18738;SDS011;9498;51.862;19.460;2023-05-23T09:27:19;5.13;;;3.13;;
18738;SDS011;9498;51.862;19.460;2023-05-23T09:29:47;5.43;;;2.70;;
18738;SDS011;9498;51.862;19.460;2023-05-23T09:32:16;6.83;;;3.00;;
18738;SDS011;9498;51.862;19.460;2023-05-23T09:34:53;6.77;;;2.83;;
18738;SDS011;9498;51.862;19.460;2023-05-23T09:37:21;7.15;;;3.40;;
18738;SDS011;9498;51.862;19.460;2023-05-23T09:39:48;6.00;;;3.20;;
18738;SDS011;9498;51.862;19.460;2023-05-23T09:42:19;7.40;;;3.23;;
18738;SDS011;9498;51.862;19.460;2023-05-23T09:44:47;4.80;;;2.90;;
18738;SDS011;9498;51.862;19.460;2023-05-23T09:47:15;4.50;;;3.00;;
18738;SDS011;9498;51.862;19.460;2023-05-23T09:49:45;6.33;;;3.10;;
18738;SDS011;9498;51.862;19.460;2023-05-23T09:52:13;7.00;;;2.90;;
18738;SDS011;9498;51.862;19.460;2023-05-23T09:54:40;9.03;;;3.43;;
18738;SDS011;9498;51.862;19.460;2023-05-23T09:57:08;3.80;;;2.73;;
18738;SDS011;9498;51.862;19.460;2023-05-23T09:59:37;5.93;;;2.90;;
18738;SDS011;9498;51.862;19.460;2023-05-23T10:02:05;5.83;;;2.70;;
18738;SDS011;9498;51.862;19.460;2023-05-23T10:04:34;8.23;;;2.87;;
18738;SDS011;9498;51.862;19.460;2023-05-23T10:07:04;9.97;;;3.67;;
18738;SDS011;9498;51.862;19.460;2023-05-23T10:09:35;6.53;;;3.43;;
18738;SDS011;9498;51.862;19.460;2023-05-23T10:14:47;8.20;;;3.00;;
18738;SDS011;9498;51.862;19.460;2023-05-23T10:17:17;7.27;;;3.10;;
18738;SDS011;9498;51.862;19.460;2023-05-23T10:19:48;6.83;;;3.43;;
18738;SDS011;9498;51.862;19.460;2023-05-23T10:22:18;9.90;;;3.13;;
18738;SDS011;9498;51.862;19.460;2023-05-23T10:24:47;11.50;;;3.13;;
18738;SDS011;9498;51.862;19.460;2023-05-23T10:27:14;7.93;;;3.10;;
18738;SDS011;9498;51.862;19.460;2023-05-23T10:29:41;5.23;;;3.03;;
18738;SDS011;9498;51.862;19.460;2023-05-23T10:32:09;9.10;;;3.10;;
18738;SDS011;9498;51.862;19.460;2023-05-23T10:34:39;6.63;;;3.10;;
18738;SDS011;9498;51.862;19.460;2023-05-23T10:37:11;4.57;;;2.93;;
18738;SDS011;9498;51.862;19.460;2023-05-23T10:39:56;13.80;;;3.40;;
18738;SDS011;9498;51.862;19.460;2023-05-23T10:42:28;6.43;;;3.13;;
18738;SDS011;9498;51.862;19.460;2023-05-23T10:45:14;9.47;;;3.03;;
18738;SDS011;9498;51.862;19.460;2023-05-23T10:47:41;5.57;;;3.10;;
18738;SDS011;9498;51.862;19.460;2023-05-23T10:50:11;4.33;;;2.80;;
18738;SDS011;9498;51.862;19.460;2023-05-23T10:52:40;6.27;;;3.43;;
18738;SDS011;9498;51.862;19.460;2023-05-23T10:55:14;6.43;;;3.13;;
18738;SDS011;9498;51.862;19.460;2023-05-23T10:57:42;15.50;;;3.47;;
18738;SDS011;9498;51.862;19.460;2023-05-23T11:00:13;6.17;;;2.73;;
18738;SDS011;9498;51.862;19.460;2023-05-23T11:02:52;4.27;;;2.93;;
18738;SDS011;9498;51.862;19.460;2023-05-23T11:05:20;5.28;;;3.38;;
18738;SDS011;9498;51.862;19.460;2023-05-23T11:08:08;7.23;;;2.80;;
18738;SDS011;9498;51.862;19.460;2023-05-23T11:10:53;9.27;;;3.60;;
18738;SDS011;9498;51.862;19.460;2023-05-23T11:13:21;8.77;;;3.40;;
18738;SDS011;9498;51.862;19.460;2023-05-23T11:15:48;5.90;;;3.23;;
18738;SDS011;9498;51.862;19.460;2023-05-23T11:18:20;8.67;;;3.30;;
18738;SDS011;9498;51.862;19.460;2023-05-23T11:20:48;7.23;;;3.40;;
18738;SDS011;9498;51.862;19.460;2023-05-23T11:23:18;8.83;;;3.40;;
18738;SDS011;9498;51.862;19.460;2023-05-23T11:25:47;5.73;;;3.37;;
18738;SDS011;9498;51.862;19.460;2023-05-23T11:28:14;5.88;;;3.38;;
18738;SDS011;9498;51.862;19.460;2023-05-23T11:30:42;4.47;;;3.47;;
18738;SDS011;9498;51.862;19.460;2023-05-23T11:33:10;6.43;;;3.40;;
18738;SDS011;9498;51.862;19.460;2023-05-23T11:35:39;5.43;;;3.37;;
18738;SDS011;9498;51.862;19.460;2023-05-23T11:38:07;6.67;;;3.70;;
18738;SDS011;9498;51.862;19.460;2023-05-23T11:40:37;6.83;;;3.40;;
18738;SDS011;9498;51.862;19.460;2023-05-23T11:43:05;7.70;;;3.70;;
18738;SDS011;9498;51.862;19.460;2023-05-23T11:45:32;5.70;;;3.60;;
18738;SDS011;9498;51.862;19.460;2023-05-23T11:48:06;8.10;;;3.97;;
18738;SDS011;9498;51.862;19.460;2023-05-23T11:50:36;5.20;;;3.53;;
18738;SDS011;9498;51.862;19.460;2023-05-23T11:53:09;11.32;;;3.92;;
18738;SDS011;9498;51.862;19.460;2023-05-23T11:55:39;7.87;;;3.60;;
18738;SDS011;9498;51.862;19.460;2023-05-23T11:58:06;5.67;;;3.33;;
18738;SDS011;9498;51.862;19.460;2023-05-23T12:00:41;6.87;;;3.50;;
18738;SDS011;9498;51.862;19.460;2023-05-23T12:03:08;5.93;;;3.60;;
18738;SDS011;9498;51.862;19.460;2023-05-23T12:05:36;6.07;;;3.60;;
18738;SDS011;9498;51.862;19.460;2023-05-23T12:08:04;7.53;;;3.70;;
18738;SDS011;9498;51.862;19.460;2023-05-23T12:10:31;6.87;;;4.00;;
18738;SDS011;9498;51.862;19.460;2023-05-23T12:12:59;7.70;;;4.00;;
18738;SDS011;9498;51.862;19.460;2023-05-23T12:15:27;7.67;;;3.87;;
18738;SDS011;9498;51.862;19.460;2023-05-23T12:17:56;10.47;;;3.83;;
18738;SDS011;9498;51.862;19.460;2023-05-23T12:20:24;12.07;;;4.10;;
18738;SDS011;9498;51.862;19.460;2023-05-23T12:22:52;5.57;;;3.70;;
18738;SDS011;9498;51.862;19.460;2023-05-23T12:25:20;5.90;;;4.10;;
18738;SDS011;9498;51.862;19.460;2023-05-23T12:27:47;10.20;;;4.30;;
18738;SDS011;9498;51.862;19.460;2023-05-23T12:30:16;7.13;;;3.77;;
18738;SDS011;9498;51.862;19.460;2023-05-23T12:32:44;9.10;;;4.00;;
18738;SDS011;9498;51.862;19.460;2023-05-23T12:35:12;7.87;;;4.40;;
18738;SDS011;9498;51.862;19.460;2023-05-23T12:37:40;6.40;;;4.17;;
18738;SDS011;9498;51.862;19.460;2023-05-23T12:40:08;8.90;;;4.20;;
18738;SDS011;9498;51.862;19.460;2023-05-23T12:42:42;13.30;;;4.97;;
18738;SDS011;9498;51.862;19.460;2023-05-23T12:45:12;7.93;;;4.50;;
18738;SDS011;9498;51.862;19.460;2023-05-23T12:47:40;8.07;;;4.60;;
18738;SDS011;9498;51.862;19.460;2023-05-23T12:50:08;8.13;;;4.47;;
18738;SDS011;9498;51.862;19.460;2023-05-23T12:52:36;8.20;;;4.80;;
18738;SDS011;9498;51.862;19.460;2023-05-23T12:55:04;9.90;;;4.60;;
18738;SDS011;9498;51.862;19.460;2023-05-23T12:57:32;9.97;;;4.60;;
18738;SDS011;9498;51.862;19.460;2023-05-23T13:00:00;7.63;;;4.70;;
18738;SDS011;9498;51.862;19.460;2023-05-23T13:02:27;11.23;;;4.83;;
18738;SDS011;9498;51.862;19.460;2023-05-23T13:04:56;13.40;;;4.97;;
18738;SDS011;9498;51.862;19.460;2023-05-23T13:07:23;11.27;;;4.90;;
18738;SDS011;9498;51.862;19.460;2023-05-23T13:09:50;7.93;;;5.17;;
18738;SDS011;9498;51.862;19.460;2023-05-23T13:12:17;11.97;;;4.73;;
18738;SDS011;9498;51.862;19.460;2023-05-23T13:14:45;9.53;;;4.73;;
18738;SDS011;9498;51.862;19.460;2023-05-23T13:17:12;11.93;;;4.83;;
18738;SDS011;9498;51.862;19.460;2023-05-23T13:19:39;14.23;;;5.27;;
18738;SDS011;9498;51.862;19.460;2023-05-23T13:22:08;9.20;;;4.87;;
18738;SDS011;9498;51.862;19.460;2023-05-23T13:24:36;6.30;;;4.33;;
18738;SDS011;9498;51.862;19.460;2023-05-23T13:27:03;6.53;;;4.87;;
18738;SDS011;9498;51.862;19.460;2023-05-23T13:29:30;14.83;;;5.17;;
18738;SDS011;9498;51.862;19.460;2023-05-23T13:31:58;13.27;;;5.20;;
18738;SDS011;9498;51.862;19.460;2023-05-23T13:34:25;10.90;;;4.60;;
18738;SDS011;9498;51.862;19.460;2023-05-23T13:36:52;11.30;;;5.43;;
18738;SDS011;9498;51.862;19.460;2023-05-23T13:39:21;10.33;;;5.10;;
18738;SDS011;9498;51.862;19.460;2023-05-23T13:41:48;9.00;;;5.13;;
18738;SDS011;9498;51.862;19.460;2023-05-23T13:44:15;8.27;;;5.10;;
18738;SDS011;9498;51.862;19.460;2023-05-23T13:46:43;8.00;;;5.00;;
18738;SDS011;9498;51.862;19.460;2023-05-23T13:49:10;13.03;;;5.37;;
18738;SDS011;9498;51.862;19.460;2023-05-23T13:51:37;11.30;;;5.37;;
18738;SDS011;9498;51.862;19.460;2023-05-23T13:54:05;9.53;;;5.20;;
18738;SDS011;9498;51.862;19.460;2023-05-23T13:56:34;11.13;;;5.47;;
18738;SDS011;9498;51.862;19.460;2023-05-23T13:59:03;10.97;;;5.00;;
18738;SDS011;9498;51.862;19.460;2023-05-23T14:01:31;8.77;;;5.50;;
18738;SDS011;9498;51.862;19.460;2023-05-23T14:03:58;14.77;;;5.40;;
18738;SDS011;9498;51.862;19.460;2023-05-23T14:06:25;10.87;;;5.27;;
18738;SDS011;9498;51.862;19.460;2023-05-23T14:08:52;7.37;;;4.80;;
18738;SDS011;9498;51.862;19.460;2023-05-23T14:11:20;10.07;;;4.77;;
18738;SDS011;9498;51.862;19.460;2023-05-23T14:13:48;10.97;;;5.00;;
18738;SDS011;9498;51.862;19.460;2023-05-23T14:16:16;9.90;;;5.07;;
18738;SDS011;9498;51.862;19.460;2023-05-23T14:18:43;10.43;;;5.07;;
18738;SDS011;9498;51.862;19.460;2023-05-23T14:21:10;10.37;;;4.83;;
18738;SDS011;9498;51.862;19.460;2023-05-23T14:23:37;9.53;;;5.10;;
18738;SDS011;9498;51.862;19.460;2023-05-23T14:26:04;10.77;;;5.23;;
18738;SDS011;9498;51.862;19.460;2023-05-23T14:28:32;9.70;;;5.27;;
18738;SDS011;9498;51.862;19.460;2023-05-23T14:31:00;12.73;;;5.60;;
18738;SDS011;9498;51.862;19.460;2023-05-23T14:33:28;22.67;;;5.80;;
18738;SDS011;9498;51.862;19.460;2023-05-23T14:35:55;7.93;;;4.97;;
18738;SDS011;9498;51.862;19.460;2023-05-23T14:38:22;8.73;;;4.80;;
18738;SDS011;9498;51.862;19.460;2023-05-23T14:40:49;9.77;;;5.03;;
18738;SDS011;9498;51.862;19.460;2023-05-23T14:43:18;9.13;;;4.87;;
18738;SDS011;9498;51.862;19.460;2023-05-23T14:45:45;12.57;;;5.40;;
18738;SDS011;9498;51.862;19.460;2023-05-23T14:48:14;10.17;;;4.90;;
18738;SDS011;9498;51.862;19.460;2023-05-23T14:50:41;11.27;;;5.10;;
18738;SDS011;9498;51.862;19.460;2023-05-23T14:53:09;9.03;;;4.90;;
18738;SDS011;9498;51.862;19.460;2023-05-23T14:55:36;11.63;;;5.20;;
18738;SDS011;9498;51.862;19.460;2023-05-23T14:58:03;7.73;;;4.83;;